Time;durP1;ratioP1;P1;durP2;ratioP2;P2;SDS_P1;SDS_P2;PMS_P1;PMS_P2;Temp;Humidity;BMP_temperature;BMP_pressure;BME280_temperature;BME280_humidity;BME280_pressure;Samples;Min_cycle;Max_cycle;Signal;HPM_P1;HPM_P2
2024/03/22 00:00:11;;;;;;;41.80;30.90;;;;;;;4.01;74.52;100116.17;108744;1260;69116;-78
2024/03/22 00:02:39;;;;;;;41.90;29.40;;;;;;;3.97;74.80;100117.30;109430;1251;71688;-74
2024/03/22 00:05:06;;;;;;;41.40;29.10;;;;;;;4.05;74.70;100114.77;109062;1259;59853;-75
2024/03/22 00:07:34;;;;;;;34.40;25.70;;;;;;;4.16;74.54;100116.37;109005;1251;61144;-74
2024/03/22 00:10:01;;;;;;;39.40;25.90;;;;;;;4.18;74.70;100113.27;109191;1251;73132;-76
2024/03/22 00:12:29;;;;;;;36.00;26.40;;;;;;;4.14;74.59;100110.88;109001;1251;68965;-72
2024/03/22 00:14:56;;;;;;;43.20;28.20;;;;;;;4.13;74.91;100110.50;108273;1256;71403;-73
2024/03/22 00:17:23;;;;;;;40.40;28.40;;;;;;;4.11;74.91;100110.42;107907;1258;60348;-74
2024/03/22 00:19:51;;;;;;;39.20;27.80;;;;;;;4.11;74.95;100106.95;106883;1251;61561;-74
2024/03/22 00:22:19;;;;;;;39.80;26.90;;;;;;;4.12;75.07;100106.36;105672;1254;74737;-74
2024/03/22 00:24:46;;;;;;;37.30;25.70;;;;;;;4.12;75.08;100106.14;105678;1258;70064;-76
2024/03/22 00:27:13;;;;;;;33.10;23.60;;;;;;;4.12;74.98;100102.84;105727;1254;72271;-75
2024/03/22 00:29:41;;;;;;;38.40;24.80;;;;;;;4.17;75.22;100097.38;105647;1255;61397;-73
2024/03/22 00:32:09;;;;;;;37.00;24.70;;;;;;;4.25;74.91;100094.11;105936;1256;61333;-77
2024/03/22 00:34:36;;;;;;;34.30;23.80;;;;;;;4.26;74.93;100090.73;105665;1260;74648;-75
2024/03/22 00:37:04;;;;;;;35.00;24.10;;;;;;;4.22;75.32;100085.05;105615;1263;68116;-74
2024/03/22 00:39:31;;;;;;;34.50;23.70;;;;;;;4.19;75.37;100087.55;105768;1254;72428;-75
2024/03/22 00:41:59;;;;;;;35.00;22.90;;;;;;;4.15;75.33;100087.55;105891;1251;61388;-74
2024/03/22 00:44:27;;;;;;;30.20;22.50;;;;;;;4.09;75.49;100086.61;106015;1253;61285;-74
2024/03/22 00:46:54;;;;;;;34.30;22.70;;;;;;;4.06;75.33;100083.81;106137;1254;73442;-74
2024/03/22 00:49:22;;;;;;;34.30;22.00;;;;;;;4.02;75.73;100084.19;106014;1258;71026;-73
2024/03/22 00:51:49;;;;;;;33.00;22.00;;;;;;;3.98;75.78;100080.84;105665;1254;73046;-74
2024/03/22 00:54:16;;;;;;;29.00;19.20;;;;;;;4.01;75.78;100079.33;106127;1254;61356;-75
2024/03/22 00:56:43;;;;;;;31.50;20.30;;;;;;;4.06;75.47;100076.30;106218;1257;61340;-75
2024/03/22 00:59:11;;;;;;;26.30;19.40;;;;;;;4.00;75.27;100079.92;107820;1254;74619;-75
2024/03/22 01:01:38;;;;;;;27.30;19.50;;;;;;;3.90;75.59;100080.30;106393;1254;67718;-73
2024/03/22 01:04:08;;;;;;;28.30;20.40;;;;;;;3.82;75.77;100077.47;105860;1258;71457;-76
2024/03/22 01:06:35;;;;;;;29.20;20.50;;;;;;;3.74;75.93;100078.95;105691;1255;61326;-78
2024/03/22 01:09:03;;;;;;;32.70;22.20;;;;;;;3.66;76.16;100074.92;105411;1261;61312;-75
2024/03/22 01:11:30;;;;;;;31.10;22.70;;;;;;;3.61;76.57;100071.30;105666;1261;74613;-75
2024/03/22 01:13:57;;;;;;;30.00;19.80;;;;;;;3.59;76.48;100075.69;105662;1257;69192;-76
2024/03/22 01:16:25;;;;;;;29.00;19.80;;;;;;;3.65;76.65;100075.41;105857;1254;73214;-77
2024/03/22 01:18:52;;;;;;;27.20;20.10;;;;;;;3.72;76.39;100074.98;106266;1254;61165;-75
2024/03/22 01:21:24;;;;;;;27.50;19.20;;;;;;;3.71;76.40;100074.41;105887;1254;61335;-76
2024/03/22 01:23:52;;;;;;;28.80;19.00;;;;;;;3.68;76.66;100077.08;105543;1258;74648;-77
2024/03/22 01:26:19;;;;;;;31.80;21.60;;;;;;;3.60;76.86;100076.83;105333;1260;69648;-76
2024/03/22 01:28:47;;;;;;;25.70;19.50;;;;;;;3.56;77.08;100079.36;105553;1260;74988;-74
2024/03/22 01:31:15;;;;;;;30.10;21.20;;;;;;;3.52;77.39;100080.87;105760;1254;61245;-77
2024/03/22 01:33:43;;;;;;;27.60;20.30;;;;;;;3.46;77.39;100078.20;105480;1252;61296;-76
2024/03/22 01:36:10;;;;;;;27.80;20.90;;;;;;;3.39;77.14;100073.31;105558;1254;74632;-75
2024/03/22 01:38:37;;;;;;;25.00;19.20;;;;;;;3.40;77.24;100072.38;106217;1254;70783;-75
2024/03/22 01:41:05;;;;;;;29.10;19.70;;;;;;;3.44;77.20;100070.45;105539;1258;74642;-75
2024/03/22 01:43:32;;;;;;;27.00;19.90;;;;;;;3.44;77.63;100073.32;105515;1258;61290;-74
2024/03/22 01:46:53;;;;;;;29.40;21.10;;;;;;;3.41;77.97;100071.04;102288;1296;599676;-72
2024/03/22 01:49:21;;;;;;;27.30;20.70;;;;;;;3.35;78.12;100068.68;104646;1268;59740;-73
2024/03/22 01:51:48;;;;;;;26.20;20.90;;;;;;;3.31;78.09;100071.06;105811;1268;62380;-74
2024/03/22 01:54:16;;;;;;;29.50;20.90;;;;;;;3.26;78.14;100074.59;106308;1271;71896;-74
2024/03/22 01:56:44;;;;;;;25.10;18.80;;;;;;;3.21;78.36;100074.27;104927;1267;69980;-75
2024/03/22 01:59:11;;;;;;;26.70;19.10;;;;;;;3.25;78.18;100071.71;104708;1268;71529;-76
2024/03/22 02:01:38;;;;;;;25.20;19.30;;;;;;;3.33;78.12;100073.01;104506;1266;209231;-75
2024/03/22 02:04:06;;;;;;;24.90;19.60;;;;;;;3.34;78.29;100072.23;104795;1267;59652;-76
2024/03/22 02:06:33;;;;;;;26.10;19.70;;;;;;;3.31;78.47;100070.92;104708;1264;73039;-77
2024/03/22 02:09:00;;;;;;;28.60;19.80;;;;;;;3.27;78.72;100064.71;104764;1270;69221;-78
2024/03/22 02:11:28;;;;;;;27.40;21.40;;;;;;;3.32;78.62;100067.52;105266;1261;71984;-74
2024/03/22 02:13:55;;;;;;;28.40;22.40;;;;;;;3.34;78.79;100069.42;105147;1259;60649;-77
2024/03/22 02:16:23;;;;;;;28.30;20.50;;;;;;;3.35;79.04;100069.16;105208;1258;60542;-77
2024/03/22 02:18:50;;;;;;;27.80;19.20;;;;;;;3.41;78.51;100065.29;105098;1260;73941;-75
2024/03/22 02:21:17;;;;;;;27.20;18.90;;;;;;;3.46;78.16;100067.20;105304;1258;70964;-75
2024/03/22 02:23:45;;;;;;;40.30;24.80;;;;;;;3.41;78.22;100067.88;105297;1258;71393;-77
2024/03/22 02:26:12;;;;;;;29.70;21.20;;;;;;;3.32;78.34;100065.73;105233;1262;60548;-77
2024/03/22 02:28:39;;;;;;;31.30;22.80;;;;;;;3.24;78.64;100067.19;105315;1254;60509;-79
2024/03/22 02:31:07;;;;;;;36.40;22.80;;;;;;;3.19;78.82;100067.27;105645;1260;74088;-79
2024/03/22 02:33:34;;;;;;;32.00;25.10;;;;;;;3.11;78.74;100066.27;106039;1258;68716;-78
2024/03/22 02:36:01;;;;;;;33.40;24.30;;;;;;;3.04;79.30;100061.20;107535;1254;71425;-75
2024/03/22 02:38:29;;;;;;;30.90;23.20;;;;;;;3.08;79.10;100063.31;105645;1256;61783;-78
2024/03/22 02:40:57;;;;;;;33.40;24.40;;;;;;;3.12;78.94;100061.48;105586;1255;60330;-79
2024/03/22 02:43:25;;;;;;;37.80;26.60;;;;;;;3.08;78.99;100062.27;105550;1258;73837;-80
2024/03/22 02:45:52;;;;;;;36.90;26.70;;;;;;;3.02;79.52;100059.95;107028;1254;70457;-78
2024/03/22 02:48:20;;;;;;;37.40;26.50;;;;;;;3.00;79.92;100057.93;108902;1253;71690;-78
2024/03/22 02:50:47;;;;;;;39.70;28.00;;;;;;;3.02;79.92;100060.26;107218;1260;60422;-80
2024/03/22 02:53:15;;;;;;;37.10;27.90;;;;;;;3.01;80.29;100058.63;106011;1259;61924;-78
2024/03/22 02:55:42;;;;;;;38.70;27.20;;;;;;;3.00;80.19;100057.64;106719;1255;72903;-78
2024/03/22 02:58:09;;;;;;;38.50;26.40;;;;;;;3.06;80.16;100060.32;106359;1256;68704;-76
2024/03/22 03:00:38;;;;;;;35.70;26.90;;;;;;;3.17;80.03;100061.63;105525;1260;71473;-79
2024/03/22 03:03:06;;;;;;;37.30;27.30;;;;;;;3.21;80.37;100061.35;105425;1261;60456;-80
2024/03/22 03:05:34;;;;;;;41.90;26.80;;;;;;;3.21;80.61;100060.81;105502;1260;60436;-77
2024/03/22 03:08:03;;;;;;;45.90;31.00;;;;;;;3.20;80.69;100059.80;105438;1256;73919;-78
2024/03/22 03:10:30;;;;;;;48.90;29.60;;;;;;;3.20;80.90;100055.10;105554;1256;70574;-79
2024/03/22 03:12:58;;;;;;;38.80;28.70;;;;;;;3.21;81.08;100057.98;105346;1256;72170;-77
2024/03/22 03:15:25;;;;;;;50.90;28.00;;;;;;;3.23;81.05;100058.68;105556;1261;60413;-78
2024/03/22 03:17:52;;;;;;;41.30;27.30;;;;;;;3.33;80.89;100057.64;105859;1256;60525;-77
2024/03/22 03:20:19;;;;;;;37.80;26.50;;;;;;;3.43;80.34;100058.30;105696;1260;74530;-78
2024/03/22 03:22:47;;;;;;;40.40;26.70;;;;;;;3.47;80.41;100055.92;105714;1253;69776;-77
2024/03/22 03:25:14;;;;;;;38.70;29.10;;;;;;;3.44;80.26;100052.60;105352;1259;74529;-77
2024/03/22 03:27:42;;;;;;;42.50;28.30;;;;;;;3.45;80.48;100054.48;105587;1259;60460;-77
2024/03/22 03:30:10;;;;;;;46.30;28.80;;;;;;;3.45;80.22;100058.14;105343;1256;60526;-78
2024/03/22 03:32:37;;;;;;;37.30;27.30;;;;;;;3.45;79.92;100059.77;105522;1259;72463;-79
2024/03/22 03:35:05;;;;;;;41.70;27.60;;;;;;;3.44;79.85;100059.77;105776;1256;70580;-78
2024/03/22 03:37:32;;;;;;;36.80;26.60;;;;;;;3.51;79.72;100056.44;105413;1256;72667;-78
2024/03/22 03:39:59;;;;;;;40.20;25.90;;;;;;;3.61;79.38;100052.72;105554;1256;60534;-78
2024/03/22 03:42:27;;;;;;;42.70;26.90;;;;;;;3.64;79.54;100050.80;108106;1255;61068;-76
2024/03/22 03:44:55;;;;;;;43.30;28.50;;;;;;;3.64;79.26;100051.34;107930;1258;76122;-75
2024/03/22 03:47:22;;;;;;;41.10;29.30;;;;;;;3.66;79.26;100052.90;106131;1256;70005;-76
2024/03/22 03:49:49;;;;;;;42.50;28.50;;;;;;;3.67;79.11;100053.70;106424;1254;72788;-78
2024/03/22 03:52:16;;;;;;;39.60;29.10;;;;;;;3.65;78.96;100053.64;107425;1257;60541;-78
2024/03/22 03:54:44;;;;;;;45.90;31.60;;;;;;;3.62;78.90;100057.73;105599;1259;60442;-77
2024/03/22 03:57:12;;;;;;;41.00;28.00;;;;;;;3.59;78.82;100053.23;105490;1260;72655;-78
2024/03/22 03:59:39;;;;;;;46.40;28.90;;;;;;;3.67;78.70;100054.38;106261;1257;68940;-75
2024/03/22 04:02:07;;;;;;;43.90;30.90;;;;;;;3.78;78.10;100053.09;106232;1256;71453;-76
2024/03/22 04:04:34;;;;;;;45.10;31.50;;;;;;;3.75;78.00;100055.70;106092;1256;60467;-78
2024/03/22 04:07:01;;;;;;;44.50;30.50;;;;;;;3.69;78.12;100055.41;105675;1258;60344;-75
2024/03/22 04:09:29;;;;;;;46.30;30.00;;;;;;;3.64;78.25;100057.23;106465;1256;72877;-77
2024/03/22 04:11:58;;;;;;;43.20;30.20;;;;;;;3.60;78.16;100056.55;106557;1256;70478;-78
2024/03/22 04:14:26;;;;;;;42.40;30.30;;;;;;;3.55;78.07;100054.61;105920;1254;72799;-77
2024/03/22 04:16:55;;;;;;;46.80;32.20;;;;;;;3.51;78.32;100059.64;105454;1257;60459;-76
2024/03/22 04:19:23;;;;;;;43.70;30.50;;;;;;;3.48;78.30;100065.63;105478;1256;61159;-76
2024/03/22 04:21:50;;;;;;;39.20;28.30;;;;;;;3.56;78.13;100060.50;105299;1256;74697;-77
2024/03/22 04:24:18;;;;;;;47.00;28.10;;;;;;;3.69;78.42;100060.55;105423;1258;70851;-76
2024/03/22 04:26:45;;;;;;;50.20;33.30;;;;;;;3.72;78.12;100059.61;105531;1257;72492;-76
2024/03/22 04:29:12;;;;;;;121.90;78.70;;;;;;;3.70;78.36;100062.75;105292;1260;60541;-76
2024/03/22 04:31:39;;;;;;;64.90;40.60;;;;;;;3.66;78.10;100056.01;105235;1256;60485;-78
2024/03/22 04:34:07;;;;;;;48.60;34.80;;;;;;;3.64;78.45;100053.94;105494;1256;74548;-77
2024/03/22 04:36:34;;;;;;;50.20;33.70;;;;;;;3.61;78.46;100054.34;105712;1254;69113;-76
2024/03/22 04:39:03;;;;;;;50.40;33.30;;;;;;;3.58;78.59;100056.64;107039;1256;70403;-76
2024/03/22 04:41:31;;;;;;;50.60;32.20;;;;;;;3.58;78.91;100057.52;106737;1255;62796;-76
2024/03/22 04:43:58;;;;;;;45.70;32.10;;;;;;;3.69;78.89;100060.00;105978;1256;61461;-76
2024/03/22 04:46:26;;;;;;;42.60;30.60;;;;;;;3.82;78.69;100060.30;105862;1257;74887;-76
2024/03/22 04:48:53;;;;;;;46.90;31.70;;;;;;;3.85;78.30;100059.73;105274;1256;70734;-77
2024/03/22 04:51:21;;;;;;;47.20;32.30;;;;;;;3.83;78.30;100059.30;105323;1260;71431;-77
2024/03/22 04:53:48;;;;;;;43.90;30.30;;;;;;;3.81;78.15;100064.20;105396;1254;60457;-74
2024/03/22 04:56:15;;;;;;;47.00;30.30;;;;;;;3.81;78.68;100063.36;105678;1260;60326;-77
2024/03/22 04:58:43;;;;;;;46.70;32.20;;;;;;;3.82;78.48;100061.71;105938;1256;73695;-76
2024/03/22 05:01:12;;;;;;;43.50;31.90;;;;;;;3.83;78.55;100062.29;105598;1259;68887;-75
2024/03/22 05:03:41;;;;;;;45.10;30.90;;;;;;;3.89;78.96;100062.19;105521;1261;71402;-75
2024/03/22 05:06:08;;;;;;;41.00;29.50;;;;;;;4.06;78.92;100057.88;105796;1256;60538;-74
2024/03/22 05:08:36;;;;;;;34.80;27.10;;;;;;;4.27;78.62;100057.55;105359;1258;60823;-75
2024/03/22 05:11:03;;;;;;;42.20;29.50;;;;;;;4.37;77.95;100057.40;105297;1256;73810;-74
2024/03/22 05:13:31;;;;;;;36.40;26.60;;;;;;;4.44;76.82;100057.92;105658;1256;69732;-78
2024/03/22 05:15:58;;;;;;;37.00;27.00;;;;;;;4.51;76.41;100056.34;105468;1256;71478;-78
2024/03/22 05:18:25;;;;;;;38.70;26.80;;;;;;;4.58;75.69;100057.71;105934;1253;61099;-77
2024/03/22 05:20:53;;;;;;;35.90;25.90;;;;;;;4.66;75.33;100057.77;105736;1256;60413;-77
2024/03/22 05:23:20;;;;;;;41.30;28.20;;;;;;;4.75;75.33;100061.24;105789;1255;72605;-78
2024/03/22 05:25:47;;;;;;;41.50;29.30;;;;;;;4.85;75.34;100056.47;105522;1256;70081;-77
2024/03/22 05:28:15;;;;;;;40.40;29.20;;;;;;;4.94;75.28;100053.59;105424;1256;70528;-76
2024/03/22 05:30:42;;;;;;;38.50;26.80;;;;;;;5.06;75.67;100055.42;105300;1261;61929;-79
2024/03/22 05:33:10;;;;;;;33.20;24.50;;;;;;;5.28;75.01;100055.55;106547;1256;60484;-77
2024/03/22 05:35:37;;;;;;;40.20;27.00;;;;;;;5.51;73.96;100056.31;108486;1255;72494;-78
2024/03/22 05:38:05;;;;;;;36.20;27.40;;;;;;;5.65;73.89;100051.94;107257;1256;68266;-78
2024/03/22 05:40:32;;;;;;;46.30;29.60;;;;;;;5.80;73.69;100050.38;105761;1259;71269;-78
2024/03/22 05:42:59;;;;;;;60.70;36.70;;;;;;;5.91;72.59;100052.58;106668;1254;60568;-76
2024/03/22 05:45:27;;;;;;;47.80;31.70;;;;;;;5.99;72.23;100051.99;106981;1254;60874;-78
2024/03/22 05:47:55;;;;;;;47.40;32.80;;;;;;;6.04;71.86;100058.55;105783;1260;73846;-76
2024/03/22 05:50:22;;;;;;;47.80;32.60;;;;;;;6.10;71.88;100054.73;106277;1256;70022;-77
2024/03/22 05:52:49;;;;;;;47.60;32.70;;;;;;;6.22;71.82;100060.17;106352;1254;71517;-76
2024/03/22 05:55:17;;;;;;;44.30;30.20;;;;;;;6.36;71.52;100060.95;106191;1264;61343;-77
2024/03/22 05:57:44;;;;;;;49.80;30.80;;;;;;;6.51;71.16;100060.50;106424;1260;61203;-75
2024/03/22 06:00:13;;;;;;;42.90;29.70;;;;;;;6.67;70.83;100064.61;105950;1255;73458;-77
2024/03/22 06:02:40;;;;;;;33.60;26.20;;;;;;;6.81;70.35;100059.29;105951;1256;69059;-76
2024/03/22 06:05:08;;;;;;;43.50;27.00;;;;;;;6.93;69.92;100065.77;105701;1254;71346;-77
2024/03/22 06:07:41;;;;;;;39.00;27.60;;;;;;;7.05;69.85;100066.48;105947;1255;61447;-78
2024/03/22 06:10:12;;;;;;;42.90;26.70;;;;;;;7.13;69.34;100065.06;106175;1255;61299;-77
2024/03/22 06:12:40;;;;;;;38.40;25.20;;;;;;;7.17;69.41;100069.10;105610;1261;75491;-75
2024/03/22 06:15:07;;;;;;;47.50;26.20;;;;;;;7.26;69.58;100070.55;105471;1257;69919;-76
2024/03/22 06:17:34;;;;;;;35.50;25.80;;;;;;;7.34;69.07;100070.77;105298;1261;71417;-76
2024/03/22 06:20:02;;;;;;;38.10;27.10;;;;;;;7.41;69.08;100068.19;105235;1257;61332;-77
2024/03/22 06:22:29;;;;;;;42.60;29.60;;;;;;;7.49;68.87;100064.50;105342;1261;61143;-76
2024/03/22 06:24:57;;;;;;;44.80;30.00;;;;;;;7.56;69.02;100062.56;105564;1255;73511;-77
2024/03/22 06:27:24;;;;;;;43.20;32.00;;;;;;;7.66;69.00;100065.83;105725;1259;69521;-77
2024/03/22 06:29:51;;;;;;;44.00;30.80;;;;;;;7.78;68.75;100063.05;106954;1256;71145;-77
2024/03/22 06:32:18;;;;;;;43.80;33.40;;;;;;;7.88;68.46;100063.14;107276;1253;61147;-75
2024/03/22 06:34:46;;;;;;;41.10;32.50;;;;;;;8.00;68.10;100062.35;106052;1256;61256;-75
2024/03/22 06:37:13;;;;;;;43.90;33.20;;;;;;;8.12;67.57;100061.24;105573;1256;76791;-77
2024/03/22 06:39:40;;;;;;;52.10;34.80;;;;;;;8.23;67.02;100061.13;105617;1261;72501;-76
2024/03/22 06:42:08;;;;;;;40.60;30.70;;;;;;;8.35;66.54;100060.38;105571;1260;73781;-78
2024/03/22 06:44:35;;;;;;;36.70;27.70;;;;;;;8.46;66.18;100060.24;105585;1256;61299;-78
2024/03/22 06:47:03;;;;;;;36.90;27.70;;;;;;;8.56;65.67;100061.58;105599;1256;61437;-78
2024/03/22 06:49:30;;;;;;;36.00;25.30;;;;;;;8.65;65.10;100059.42;105794;1255;75898;-77
2024/03/22 06:51:57;;;;;;;35.20;24.80;;;;;;;8.73;64.63;100062.56;105712;1261;69120;-78
2024/03/22 06:54:26;;;;;;;37.30;27.30;;;;;;;8.81;64.10;100062.65;106040;1257;72736;-79
2024/03/22 06:56:53;;;;;;;42.30;30.30;;;;;;;8.89;63.94;100063.49;105888;1255;61268;-78
2024/03/22 06:59:21;;;;;;;50.00;35.50;;;;;;;8.97;63.82;100066.23;106123;1257;61344;-79
2024/03/22 07:01:49;;;;;;;48.80;37.70;;;;;;;9.06;63.69;100063.94;106338;1256;75985;-74
2024/03/22 07:04:16;;;;;;;43.20;33.20;;;;;;;9.15;63.46;100061.17;106360;1255;69203;-76
2024/03/22 07:06:43;;;;;;;40.50;31.10;;;;;;;9.23;62.99;100061.42;106374;1256;72163;-76
2024/03/22 07:09:11;;;;;;;33.40;25.00;;;;;;;9.31;62.81;100062.55;106377;1255;61127;-74
2024/03/22 07:11:39;;;;;;;32.70;25.10;;;;;;;9.40;62.36;100061.83;106684;1254;60909;-77
2024/03/22 07:14:07;;;;;;;34.10;23.50;;;;;;;9.48;61.99;100061.55;107964;1257;74995;-73
2024/03/22 07:16:36;;;;;;;40.60;30.50;;;;;;;9.57;61.35;100064.19;108281;1254;71578;-76
2024/03/22 07:19:05;;;;;;;40.80;29.50;;;;;;;9.66;61.03;100061.61;108024;1255;71392;-76
2024/03/22 07:21:33;;;;;;;35.40;25.10;;;;;;;9.72;60.49;100063.66;107846;1257;61369;-76
2024/03/22 07:24:01;;;;;;;37.70;26.20;;;;;;;9.76;60.56;100066.52;106628;1255;61299;-77
2024/03/22 07:26:29;;;;;;;36.10;25.70;;;;;;;9.82;60.36;100062.61;106581;1262;76938;-76
2024/03/22 07:28:58;;;;;;;41.20;30.90;;;;;;;9.90;60.20;100063.17;107544;1254;71565;-77
2024/03/22 07:31:25;;;;;;;38.70;29.10;;;;;;;9.99;59.85;100062.48;106781;1254;71665;-76
2024/03/22 07:33:56;;;;;;;35.10;27.70;;;;;;;10.06;59.49;100066.73;107032;1256;62484;-78
2024/03/22 07:36:23;;;;;;;40.30;30.40;;;;;;;10.12;59.48;100065.40;106009;1261;61240;-77
2024/03/22 07:38:51;;;;;;;40.30;30.10;;;;;;;10.16;59.42;100063.23;105825;1254;73891;-77
2024/03/22 07:41:18;;;;;;;43.60;29.70;;;;;;;10.20;58.92;100058.17;106089;1260;69067;-78
2024/03/22 07:43:46;;;;;;;38.40;27.70;;;;;;;10.26;58.55;100057.08;106204;1254;74986;-77
2024/03/22 07:46:13;;;;;;;34.00;26.40;;;;;;;10.33;58.45;100052.43;106212;1254;61323;-78
2024/03/22 07:48:40;;;;;;;31.90;24.60;;;;;;;10.39;58.07;100051.36;106034;1253;61553;-78
2024/03/22 07:51:08;;;;;;;27.60;19.80;;;;;;;10.46;58.03;100048.53;105953;1256;77027;-79
2024/03/22 07:53:35;;;;;;;23.80;18.40;;;;;;;10.52;57.58;100048.23;105867;1255;70600;-78
2024/03/22 07:56:03;;;;;;;29.60;19.90;;;;;;;10.57;57.13;100043.77;105847;1256;71911;-80
2024/03/22 07:58:31;;;;;;;27.10;20.00;;;;;;;10.62;56.66;100044.15;106127;1256;61256;-79
2024/03/22 08:01:00;;;;;;;26.60;21.50;;;;;;;10.63;56.67;100041.06;105979;1254;61344;-78
2024/03/22 08:03:27;;;;;;;28.70;23.50;;;;;;;10.68;56.81;100045.35;105954;1254;73379;-80
2024/03/22 08:05:54;;;;;;;31.20;21.80;;;;;;;10.71;56.90;100043.08;106333;1253;70204;-79
2024/03/22 08:08:22;;;;;;;26.30;20.50;;;;;;;10.77;56.77;100039.88;106741;1258;71363;-78
2024/03/22 08:10:50;;;;;;;24.40;19.70;;;;;;;10.89;56.34;100046.34;106523;1253;61312;-79
2024/03/22 08:13:18;;;;;;;24.50;19.30;;;;;;;10.97;56.02;100045.37;106393;1259;61210;-78
2024/03/22 08:15:46;;;;;;;24.00;19.00;;;;;;;11.07;55.75;100038.73;106365;1254;76924;-76
2024/03/22 08:18:13;;;;;;;23.30;16.20;;;;;;;11.17;55.91;100037.29;106443;1259;69219;-80
2024/03/22 08:20:41;;;;;;;20.80;15.50;;;;;;;11.33;55.37;100035.08;107371;1253;73583;-79
2024/03/22 08:23:09;;;;;;;16.80;13.10;;;;;;;11.46;54.63;100035.00;108011;1256;61082;-79
2024/03/22 08:25:37;;;;;;;16.20;10.70;;;;;;;11.58;54.13;100037.05;107236;1260;61880;-74
2024/03/22 08:28:04;;;;;;;15.40;11.70;;;;;;;11.69;53.70;100027.98;106337;1259;75670;-77
2024/03/22 08:30:37;;;;;;;20.80;12.40;;;;;;;11.80;53.69;100021.60;106089;1261;69145;-77
2024/03/22 08:33:05;;;;;;;15.70;11.70;;;;;;;11.98;53.47;100022.48;106056;1260;74800;-76
2024/03/22 08:35:32;;;;;;;18.40;11.50;;;;;;;12.15;52.81;100017.79;105950;1261;61203;-75
2024/03/22 08:38:00;;;;;;;19.50;12.00;;;;;;;12.32;52.96;100011.09;106217;1260;62053;-76
2024/03/22 08:40:28;;;;;;;22.40;11.60;;;;;;;12.53;52.40;100008.36;105952;1254;76834;-76
2024/03/22 08:42:56;;;;;;;14.60;9.60;;;;;;;12.72;51.78;100006.01;105883;1255;70919;-76
2024/03/22 08:45:23;;;;;;;15.90;10.50;;;;;;;12.86;51.33;99999.92;106237;1259;71710;-77
2024/03/22 08:47:51;;;;;;;12.60;9.00;;;;;;;13.00;50.57;99996.73;106089;1254;62587;-81
2024/03/22 08:50:20;;;;;;;14.00;10.00;;;;;;;13.18;50.14;99997.90;106495;1255;61255;-76
2024/03/22 08:52:48;;;;;;;14.00;9.60;;;;;;;13.36;50.16;99997.91;106009;1256;73244;-78
2024/03/22 08:55:15;;;;;;;16.20;9.10;;;;;;;13.61;49.79;99997.13;105693;1256;69040;-74
2024/03/22 08:57:43;;;;;;;17.10;9.40;;;;;;;13.84;49.12;99990.31;105898;1259;73809;-74
2024/03/22 09:00:24;;;;;;;17.30;9.00;;;;;;;14.06;48.24;99990.49;105635;1255;61216;-73
2024/03/22 09:02:51;;;;;;;12.20;10.10;;;;;;;14.26;47.66;99990.35;105512;1255;61364;-74
2024/03/22 09:05:19;;;;;;;15.00;9.20;;;;;;;14.36;46.70;99991.91;105992;1256;76786;-74
2024/03/22 09:07:46;;;;;;;14.30;10.50;;;;;;;14.27;46.65;99990.83;105777;1261;68780;-73
2024/03/22 09:10:16;;;;;;;13.40;10.20;;;;;;;14.09;46.61;99987.13;105827;1256;74754;-73
2024/03/22 09:12:44;;;;;;;17.40;11.20;;;;;;;13.91;46.83;99983.96;105675;1261;61346;-74
2024/03/22 09:15:11;;;;;;;17.00;10.40;;;;;;;13.72;47.00;99985.13;106036;1254;61278;-71
2024/03/22 09:17:38;;;;;;;12.70;8.90;;;;;;;13.52;47.16;99983.18;106318;1256;76868;-74
2024/03/22 09:20:07;;;;;;;16.30;9.70;;;;;;;13.36;47.00;99981.52;106049;1259;69349;-73
2024/03/22 09:22:35;;;;;;;13.90;10.10;;;;;;;13.20;47.34;99975.97;105949;1256;74934;-73
2024/03/22 09:25:02;;;;;;;16.00;10.50;;;;;;;13.09;47.58;99972.09;105745;1256;61965;-76
2024/03/22 09:27:30;;;;;;;15.00;9.90;;;;;;;12.93;47.73;99973.54;105935;1258;62258;-74
2024/03/22 09:29:58;;;;;;;13.10;10.50;;;;;;;12.77;48.02;99969.35;105746;1261;75680;-74
2024/03/22 09:32:26;;;;;;;15.20;10.50;;;;;;;12.67;48.09;99968.59;105841;1255;72054;-75
2024/03/22 09:34:54;;;;;;;18.50;10.90;;;;;;;12.59;48.12;99968.17;105636;1256;72121;-73
2024/03/22 09:37:22;;;;;;;16.10;11.30;;;;;;;12.51;48.30;99962.73;105599;1256;61286;-74
2024/03/22 09:39:49;;;;;;;19.40;11.40;;;;;;;12.56;48.29;99960.89;105809;1256;61416;-74
2024/03/22 09:42:18;;;;;;;17.00;11.40;;;;;;;12.76;48.28;99960.55;105670;1260;76996;-74
2024/03/22 09:44:47;;;;;;;18.90;11.30;;;;;;;13.00;47.78;99958.98;105893;1260;71545;-73
2024/03/22 09:47:15;;;;;;;16.20;11.60;;;;;;;13.19;47.54;99958.40;106162;1257;73527;-73
2024/03/22 09:49:49;;;;;;;13.10;11.10;;;;;;;13.32;47.22;99953.91;105851;1256;61229;-74
2024/03/22 09:52:19;;;;;;;16.80;10.90;;;;;;;13.47;47.11;99954.67;105611;1261;61571;-74
2024/03/22 09:54:46;;;;;;;17.90;12.30;;;;;;;13.63;47.09;99951.02;105664;1256;77011;-73
2024/03/22 09:57:18;;;;;;;18.20;13.30;;;;;;;13.78;46.22;99949.95;105612;1261;71037;-74
2024/03/22 09:59:45;;;;;;;20.60;15.30;;;;;;;13.80;45.90;99946.10;105711;1256;74821;-75
2024/03/22 10:02:13;;;;;;;22.20;15.20;;;;;;;13.82;45.80;99951.34;105721;1256;61299;-72
2024/03/22 10:04:41;;;;;;;20.00;16.10;;;;;;;13.82;45.62;99946.25;105758;1261;62129;-73
2024/03/22 10:07:10;;;;;;;21.60;15.90;;;;;;;13.79;45.34;99949.12;105803;1255;75190;-71
2024/03/22 10:09:37;;;;;;;23.80;15.80;;;;;;;13.63;45.41;99944.95;106560;1260;70620;-75
2024/03/22 10:12:05;;;;;;;21.30;15.80;;;;;;;13.48;45.55;99939.56;106571;1260;73646;-74
2024/03/22 10:14:33;;;;;;;24.40;17.70;;;;;;;13.37;45.83;99937.45;106400;1254;61298;-72
2024/03/22 10:17:04;;;;;;;26.70;18.30;;;;;;;13.30;45.83;99939.25;106389;1254;61231;-79
2024/03/22 10:19:32;;;;;;;21.50;16.80;;;;;;;13.11;45.87;99941.69;106049;1261;76055;-78
2024/03/22 10:22:04;;;;;;;22.50;16.80;;;;;;;12.90;45.96;99937.25;106270;1256;72709;-78
2024/03/22 10:24:33;;;;;;;29.30;17.20;;;;;;;12.69;46.11;99934.15;106396;1254;72798;-77
2024/03/22 10:27:00;;;;;;;22.40;16.90;;;;;;;12.55;46.33;99931.02;106176;1253;61163;-77
2024/03/22 10:29:31;;;;;;;26.70;17.80;;;;;;;12.47;46.84;99928.37;106559;1256;62491;-77
2024/03/22 10:31:58;;;;;;;24.20;16.70;;;;;;;12.41;46.99;99927.27;106170;1254;73674;-79
2024/03/22 10:34:29;;;;;;;28.60;18.70;;;;;;;12.38;47.33;99925.09;106547;1261;72306;-79
2024/03/22 10:36:57;;;;;;;26.30;18.90;;;;;;;12.44;47.65;99923.05;106878;1256;74774;-80
2024/03/22 10:39:25;;;;;;;25.60;17.00;;;;;;;12.57;47.49;99920.98;106748;1255;61336;-79
2024/03/22 10:41:53;;;;;;;24.20;17.60;;;;;;;12.63;47.12;99915.73;106642;1256;62082;-81
2024/03/22 10:44:21;;;;;;;25.80;18.20;;;;;;;12.64;46.90;99910.83;106507;1254;75938;-79
2024/03/22 10:46:51;;;;;;;21.80;16.30;;;;;;;12.61;47.03;99906.85;106583;1261;69471;-81
2024/03/22 10:49:20;;;;;;;22.00;16.70;;;;;;;12.62;47.04;99904.08;106385;1254;74067;-78
2024/03/22 10:51:52;;;;;;;23.80;15.50;;;;;;;12.60;46.82;99900.92;106138;1256;61321;-79
2024/03/22 10:54:26;;;;;;;23.60;16.70;;;;;;;12.60;46.72;99903.77;105879;1256;62070;-79
2024/03/22 10:56:54;;;;;;;18.90;15.90;;;;;;;12.62;46.69;99902.67;106215;1256;76928;-80
2024/03/22 10:59:22;;;;;;;26.30;15.60;;;;;;;12.61;46.65;99898.00;106206;1259;69676;-74
2024/03/22 11:01:50;;;;;;;18.70;14.70;;;;;;;12.57;46.40;99900.55;106954;1253;74881;-77
2024/03/22 11:07:08;;;;;;;22.40;15.20;;;;;;;12.46;46.45;99898.53;107203;1261;61151;-73
2024/03/22 11:09:37;;;;;;;23.80;16.60;;;;;;;12.40;46.50;99895.80;105435;1261;74056;-74
2024/03/22 11:12:08;;;;;;;22.50;16.00;;;;;;;12.31;46.75;99895.85;105534;1260;70271;-74
2024/03/22 11:14:38;;;;;;;28.50;16.90;;;;;;;12.18;46.89;99895.27;105481;1260;74677;-74